sensor_id;sensor_type;location;lat;lon;timestamp;P1;durP1;ratioP1;P2;durP2;ratioP2
53207;SDS011;39093;52.788;6.940;2023-09-19T00:00:37;9.82;;;2.25;;
53207;SDS011;39093;52.788;6.940;2023-09-19T00:03:08;8.02;;;2.00;;
53207;SDS011;39093;52.788;6.940;2023-09-19T00:05:36;6.20;;;1.85;;
53207;SDS011;39093;52.788;6.940;2023-09-19T00:08:05;3.83;;;1.40;;
53207;SDS011;39093;52.788;6.940;2023-09-19T00:10:32;8.43;;;1.60;;
53207;SDS011;39093;52.788;6.940;2023-09-19T00:13:03;7.97;;;1.80;;
53207;SDS011;39093;52.788;6.940;2023-09-19T00:15:36;3.10;;;1.13;;
53207;SDS011;39093;52.788;6.940;2023-09-19T00:18:05;7.05;;;2.13;;
53207;SDS011;39093;52.788;6.940;2023-09-19T00:20:35;7.30;;;1.48;;
53207;SDS011;39093;52.788;6.940;2023-09-19T00:23:03;8.27;;;2.00;;
53207;SDS011;39093;52.788;6.940;2023-09-19T00:25:35;6.38;;;1.70;;
53207;SDS011;39093;52.788;6.940;2023-09-19T00:28:04;3.65;;;1.40;;
53207;SDS011;39093;52.788;6.940;2023-09-19T00:30:34;7.78;;;1.60;;
53207;SDS011;39093;52.788;6.940;2023-09-19T00:33:01;6.13;;;1.50;;
53207;SDS011;39093;52.788;6.940;2023-09-19T00:35:32;7.57;;;2.17;;
53207;SDS011;39093;52.788;6.940;2023-09-19T00:37:59;5.47;;;1.55;;
53207;SDS011;39093;52.788;6.940;2023-09-19T00:40:26;5.55;;;1.65;;
53207;SDS011;39093;52.788;6.940;2023-09-19T00:42:53;10.00;;;1.77;;
53207;SDS011;39093;52.788;6.940;2023-09-19T00:45:26;6.32;;;1.60;;
53207;SDS011;39093;52.788;6.940;2023-09-19T00:47:54;7.60;;;1.83;;
53207;SDS011;39093;52.788;6.940;2023-09-19T00:50:24;8.60;;;1.90;;
53207;SDS011;39093;52.788;6.940;2023-09-19T00:52:55;5.88;;;1.50;;
53207;SDS011;39093;52.788;6.940;2023-09-19T00:55:23;9.63;;;1.55;;
53207;SDS011;39093;52.788;6.940;2023-09-19T00:57:51;5.72;;;1.50;;
53207;SDS011;39093;52.788;6.940;2023-09-19T01:00:19;5.55;;;1.88;;
53207;SDS011;39093;52.788;6.940;2023-09-19T01:02:47;12.13;;;2.58;;
53207;SDS011;39093;52.788;6.940;2023-09-19T01:05:15;11.45;;;2.25;;
53207;SDS011;39093;52.788;6.940;2023-09-19T01:07:42;9.68;;;1.88;;
53207;SDS011;39093;52.788;6.940;2023-09-19T01:10:16;17.55;;;3.00;;
53207;SDS011;39093;52.788;6.940;2023-09-19T01:20:50;14.60;;;2.53;;
53207;SDS011;39093;52.788;6.940;2023-09-19T01:23:42;13.18;;;2.30;;
53207;SDS011;39093;52.788;6.940;2023-09-19T01:29:23;10.80;;;2.08;;
53207;SDS011;39093;52.788;6.940;2023-09-19T01:32:01;9.73;;;2.55;;
53207;SDS011;39093;52.788;6.940;2023-09-19T01:34:44;9.57;;;2.53;;
53207;SDS011;39093;52.788;6.940;2023-09-19T01:37:16;15.65;;;2.55;;
53207;SDS011;39093;52.788;6.940;2023-09-19T01:39:48;13.25;;;2.00;;
53207;SDS011;39093;52.788;6.940;2023-09-19T01:42:31;11.05;;;2.38;;
53207;SDS011;39093;52.788;6.940;2023-09-19T01:47:49;17.40;;;2.72;;
53207;SDS011;39093;52.788;6.940;2023-09-19T01:53:10;19.73;;;4.35;;
53207;SDS011;39093;52.788;6.940;2023-09-19T01:55:41;15.60;;;2.75;;
53207;SDS011;39093;52.788;6.940;2023-09-19T02:00:48;17.17;;;3.05;;
53207;SDS011;39093;52.788;6.940;2023-09-19T02:03:19;14.43;;;2.95;;
53207;SDS011;39093;52.788;6.940;2023-09-19T02:05:51;11.82;;;2.55;;
53207;SDS011;39093;52.788;6.940;2023-09-19T02:08:20;10.98;;;3.50;;
53207;SDS011;39093;52.788;6.940;2023-09-19T02:10:51;14.98;;;2.80;;
53207;SDS011;39093;52.788;6.940;2023-09-19T02:13:19;10.60;;;2.50;;
53207;SDS011;39093;52.788;6.940;2023-09-19T02:15:48;11.50;;;2.33;;
53207;SDS011;39093;52.788;6.940;2023-09-19T02:18:15;18.92;;;2.60;;
53207;SDS011;39093;52.788;6.940;2023-09-19T02:20:42;9.85;;;2.65;;
53207;SDS011;39093;52.788;6.940;2023-09-19T02:23:09;9.57;;;2.17;;
53207;SDS011;39093;52.788;6.940;2023-09-19T02:25:36;13.60;;;2.30;;
53207;SDS011;39093;52.788;6.940;2023-09-19T02:28:05;13.02;;;2.40;;
53207;SDS011;39093;52.788;6.940;2023-09-19T02:30:33;12.15;;;2.63;;
53207;SDS011;39093;52.788;6.940;2023-09-19T02:33:00;16.88;;;2.85;;
53207;SDS011;39093;52.788;6.940;2023-09-19T02:35:28;8.88;;;2.83;;
53207;SDS011;39093;52.788;6.940;2023-09-19T02:37:59;16.23;;;3.08;;
53207;SDS011;39093;52.788;6.940;2023-09-19T02:40:26;14.95;;;2.50;;
53207;SDS011;39093;52.788;6.940;2023-09-19T02:42:54;14.80;;;2.58;;
53207;SDS011;39093;52.788;6.940;2023-09-19T02:45:22;10.52;;;2.42;;
53207;SDS011;39093;52.788;6.940;2023-09-19T02:47:49;9.50;;;2.30;;
53207;SDS011;39093;52.788;6.940;2023-09-19T02:50:17;11.98;;;2.22;;
53207;SDS011;39093;52.788;6.940;2023-09-19T02:52:44;10.45;;;2.40;;
53207;SDS011;39093;52.788;6.940;2023-09-19T02:55:16;12.35;;;3.03;;
53207;SDS011;39093;52.788;6.940;2023-09-19T02:57:46;8.65;;;2.60;;
53207;SDS011;39093;52.788;6.940;2023-09-19T03:00:18;15.35;;;2.70;;
53207;SDS011;39093;52.788;6.940;2023-09-19T03:02:49;12.73;;;3.05;;
53207;SDS011;39093;52.788;6.940;2023-09-19T03:05:18;12.00;;;2.78;;
53207;SDS011;39093;52.788;6.940;2023-09-19T03:07:46;18.60;;;3.03;;
53207;SDS011;39093;52.788;6.940;2023-09-19T03:10:20;11.57;;;2.92;;
53207;SDS011;39093;52.788;6.940;2023-09-19T03:12:47;9.05;;;2.17;;
53207;SDS011;39093;52.788;6.940;2023-09-19T03:15:15;12.02;;;2.22;;
53207;SDS011;39093;52.788;6.940;2023-09-19T03:17:45;11.25;;;2.42;;
53207;SDS011;39093;52.788;6.940;2023-09-19T03:20:14;13.27;;;2.38;;
53207;SDS011;39093;52.788;6.940;2023-09-19T03:22:44;7.78;;;1.73;;
53207;SDS011;39093;52.788;6.940;2023-09-19T03:25:12;9.95;;;2.00;;
53207;SDS011;39093;52.788;6.940;2023-09-19T03:27:40;8.35;;;2.08;;
53207;SDS011;39093;52.788;6.940;2023-09-19T03:30:07;11.32;;;2.47;;
53207;SDS011;39093;52.788;6.940;2023-09-19T03:32:35;11.57;;;3.35;;
53207;SDS011;39093;52.788;6.940;2023-09-19T03:35:03;7.30;;;1.73;;
53207;SDS011;39093;52.788;6.940;2023-09-19T03:37:33;9.88;;;2.10;;
53207;SDS011;39093;52.788;6.940;2023-09-19T03:40:00;9.68;;;2.13;;
53207;SDS011;39093;52.788;6.940;2023-09-19T03:42:31;12.77;;;2.55;;
53207;SDS011;39093;52.788;6.940;2023-09-19T03:44:58;10.35;;;2.13;;
53207;SDS011;39093;52.788;6.940;2023-09-19T03:47:27;13.75;;;2.92;;
53207;SDS011;39093;52.788;6.940;2023-09-19T03:49:54;13.25;;;2.45;;
53207;SDS011;39093;52.788;6.940;2023-09-19T03:52:20;8.98;;;2.38;;
53207;SDS011;39093;52.788;6.940;2023-09-19T03:54:47;15.30;;;2.72;;
53207;SDS011;39093;52.788;6.940;2023-09-19T03:57:15;16.85;;;2.60;;
53207;SDS011;39093;52.788;6.940;2023-09-19T03:59:46;12.00;;;3.17;;
53207;SDS011;39093;52.788;6.940;2023-09-19T04:02:13;11.93;;;2.80;;
53207;SDS011;39093;52.788;6.940;2023-09-19T04:04:49;15.48;;;2.40;;
53207;SDS011;39093;52.788;6.940;2023-09-19T04:07:16;8.40;;;1.90;;
53207;SDS011;39093;52.788;6.940;2023-09-19T04:09:49;9.98;;;2.60;;
53207;SDS011;39093;52.788;6.940;2023-09-19T04:12:15;10.48;;;3.03;;
53207;SDS011;39093;52.788;6.940;2023-09-19T04:14:45;13.85;;;3.10;;
53207;SDS011;39093;52.788;6.940;2023-09-19T04:17:12;17.27;;;3.53;;
53207;SDS011;39093;52.788;6.940;2023-09-19T04:19:40;17.15;;;2.72;;
53207;SDS011;39093;52.788;6.940;2023-09-19T04:22:08;13.38;;;2.67;;
53207;SDS011;39093;52.788;6.940;2023-09-19T04:24:35;17.58;;;3.22;;
53207;SDS011;39093;52.788;6.940;2023-09-19T04:27:04;17.88;;;3.00;;
53207;SDS011;39093;52.788;6.940;2023-09-19T04:29:31;15.23;;;2.88;;
53207;SDS011;39093;52.788;6.940;2023-09-19T04:31:59;17.65;;;2.92;;
53207;SDS011;39093;52.788;6.940;2023-09-19T04:34:28;11.02;;;2.45;;
53207;SDS011;39093;52.788;6.940;2023-09-19T04:36:57;13.00;;;3.17;;
53207;SDS011;39093;52.788;6.940;2023-09-19T04:39:24;15.93;;;2.97;;
53207;SDS011;39093;52.788;6.940;2023-09-19T04:41:52;15.85;;;2.97;;
53207;SDS011;39093;52.788;6.940;2023-09-19T04:44:19;14.70;;;3.05;;
53207;SDS011;39093;52.788;6.940;2023-09-19T04:46:47;18.17;;;3.20;;
53207;SDS011;39093;52.788;6.940;2023-09-19T04:49:14;22.67;;;3.97;;
53207;SDS011;39093;52.788;6.940;2023-09-19T04:51:41;16.20;;;2.95;;
53207;SDS011;39093;52.788;6.940;2023-09-19T04:54:08;17.23;;;3.72;;
53207;SDS011;39093;52.788;6.940;2023-09-19T04:56:39;12.48;;;3.00;;
53207;SDS011;39093;52.788;6.940;2023-09-19T04:59:06;16.83;;;3.15;;
53207;SDS011;39093;52.788;6.940;2023-09-19T05:01:33;20.13;;;3.65;;
53207;SDS011;39093;52.788;6.940;2023-09-19T05:04:00;15.82;;;3.13;;
53207;SDS011;39093;52.788;6.940;2023-09-19T05:06:28;22.25;;;3.28;;
53207;SDS011;39093;52.788;6.940;2023-09-19T05:08:55;22.10;;;3.72;;
53207;SDS011;39093;52.788;6.940;2023-09-19T05:11:22;12.55;;;2.83;;
53207;SDS011;39093;52.788;6.940;2023-09-19T05:13:50;17.52;;;2.92;;
53207;SDS011;39093;52.788;6.940;2023-09-19T05:16:19;15.43;;;2.83;;
53207;SDS011;39093;52.788;6.940;2023-09-19T05:18:46;18.45;;;3.15;;
53207;SDS011;39093;52.788;6.940;2023-09-19T05:21:13;20.60;;;3.25;;
53207;SDS011;39093;52.788;6.940;2023-09-19T05:23:40;15.57;;;2.95;;
53207;SDS011;39093;52.788;6.940;2023-09-19T05:26:08;13.98;;;2.58;;
53207;SDS011;39093;52.788;6.940;2023-09-19T05:28:36;14.80;;;3.55;;
53207;SDS011;39093;52.788;6.940;2023-09-19T05:31:04;16.75;;;3.10;;
53207;SDS011;39093;52.788;6.940;2023-09-19T05:33:31;15.73;;;2.78;;
53207;SDS011;39093;52.788;6.940;2023-09-19T05:35:59;18.08;;;2.58;;
53207;SDS011;39093;52.788;6.940;2023-09-19T05:38:26;20.05;;;3.40;;
53207;SDS011;39093;52.788;6.940;2023-09-19T05:40:54;17.63;;;3.08;;
53207;SDS011;39093;52.788;6.940;2023-09-19T05:43:21;14.63;;;2.78;;
53207;SDS011;39093;52.788;6.940;2023-09-19T05:45:48;11.57;;;2.45;;
53207;SDS011;39093;52.788;6.940;2023-09-19T05:48:18;12.82;;;2.72;;
53207;SDS011;39093;52.788;6.940;2023-09-19T05:50:47;16.75;;;2.58;;
53207;SDS011;39093;52.788;6.940;2023-09-19T05:53:17;12.93;;;2.58;;
53207;SDS011;39093;52.788;6.940;2023-09-19T05:55:45;11.30;;;2.78;;
53207;SDS011;39093;52.788;6.940;2023-09-19T05:58:12;12.27;;;2.88;;
53207;SDS011;39093;52.788;6.940;2023-09-19T06:00:44;11.43;;;2.65;;
53207;SDS011;39093;52.788;6.940;2023-09-19T06:03:13;14.15;;;2.88;;
53207;SDS011;39093;52.788;6.940;2023-09-19T06:05:41;17.30;;;3.28;;
53207;SDS011;39093;52.788;6.940;2023-09-19T06:08:08;12.48;;;3.03;;
53207;SDS011;39093;52.788;6.940;2023-09-19T06:13:31;13.85;;;3.10;;
53207;SDS011;39093;52.788;6.940;2023-09-19T06:16:00;13.70;;;2.67;;
53207;SDS011;39093;52.788;6.940;2023-09-19T06:18:29;10.65;;;3.22;;
53207;SDS011;39093;52.788;6.940;2023-09-19T06:20:59;21.38;;;4.68;;
53207;SDS011;39093;52.788;6.940;2023-09-19T06:23:26;10.48;;;2.92;;
53207;SDS011;39093;52.788;6.940;2023-09-19T06:25:55;16.58;;;2.90;;
53207;SDS011;39093;52.788;6.940;2023-09-19T06:28:23;16.92;;;2.83;;
53207;SDS011;39093;52.788;6.940;2023-09-19T06:30:50;14.27;;;3.20;;
53207;SDS011;39093;52.788;6.940;2023-09-19T06:33:17;13.13;;;3.00;;
53207;SDS011;39093;52.788;6.940;2023-09-19T06:35:46;18.90;;;2.75;;
53207;SDS011;39093;52.788;6.940;2023-09-19T06:38:14;16.25;;;3.65;;
53207;SDS011;39093;52.788;6.940;2023-09-19T06:40:42;15.63;;;2.85;;
53207;SDS011;39093;52.788;6.940;2023-09-19T06:43:09;14.35;;;2.90;;
53207;SDS011;39093;52.788;6.940;2023-09-19T06:45:37;8.60;;;2.50;;
53207;SDS011;39093;52.788;6.940;2023-09-19T06:48:04;25.00;;;3.55;;
53207;SDS011;39093;52.788;6.940;2023-09-19T06:50:32;13.77;;;2.58;;
53207;SDS011;39093;52.788;6.940;2023-09-19T06:53:00;15.90;;;2.65;;
53207;SDS011;39093;52.788;6.940;2023-09-19T06:55:28;14.63;;;3.13;;
53207;SDS011;39093;52.788;6.940;2023-09-19T06:57:58;20.48;;;8.27;;
53207;SDS011;39093;52.788;6.940;2023-09-19T07:00:25;11.80;;;2.95;;
53207;SDS011;39093;52.788;6.940;2023-09-19T07:03:02;11.77;;;3.13;;
53207;SDS011;39093;52.788;6.940;2023-09-19T07:05:32;15.40;;;3.55;;
53207;SDS011;39093;52.788;6.940;2023-09-19T07:08:09;11.57;;;2.55;;
53207;SDS011;39093;52.788;6.940;2023-09-19T07:13:15;10.93;;;2.45;;
53207;SDS011;39093;52.788;6.940;2023-09-19T07:15:45;16.05;;;2.97;;
53207;SDS011;39093;52.788;6.940;2023-09-19T07:18:13;9.95;;;2.38;;
53207;SDS011;39093;52.788;6.940;2023-09-19T07:20:42;12.25;;;3.08;;
53207;SDS011;39093;52.788;6.940;2023-09-19T07:23:19;23.25;;;2.75;;
53207;SDS011;39093;52.788;6.940;2023-09-19T07:25:48;16.90;;;3.70;;
53207;SDS011;39093;52.788;6.940;2023-09-19T07:28:19;13.50;;;2.92;;
53207;SDS011;39093;52.788;6.940;2023-09-19T07:30:46;14.48;;;3.05;;
53207;SDS011;39093;52.788;6.940;2023-09-19T07:33:13;16.23;;;2.45;;
53207;SDS011;39093;52.788;6.940;2023-09-19T07:35:40;14.48;;;2.70;;
53207;SDS011;39093;52.788;6.940;2023-09-19T07:38:12;13.40;;;2.90;;
53207;SDS011;39093;52.788;6.940;2023-09-19T07:40:39;10.05;;;2.85;;
53207;SDS011;39093;52.788;6.940;2023-09-19T07:43:06;15.02;;;3.25;;
53207;SDS011;39093;52.788;6.940;2023-09-19T07:45:33;14.10;;;2.72;;
53207;SDS011;39093;52.788;6.940;2023-09-19T07:48:00;13.90;;;2.63;;
53207;SDS011;39093;52.788;6.940;2023-09-19T07:50:30;21.13;;;3.22;;
53207;SDS011;39093;52.788;6.940;2023-09-19T07:52:59;10.93;;;2.67;;
53207;SDS011;39093;52.788;6.940;2023-09-19T07:55:26;12.48;;;2.55;;
53207;SDS011;39093;52.788;6.940;2023-09-19T07:57:53;10.18;;;2.58;;
53207;SDS011;39093;52.788;6.940;2023-09-19T08:00:20;7.68;;;2.70;;
53207;SDS011;39093;52.788;6.940;2023-09-19T08:02:49;11.60;;;2.60;;
53207;SDS011;39093;52.788;6.940;2023-09-19T08:05:29;16.05;;;2.65;;
53207;SDS011;39093;52.788;6.940;2023-09-19T08:07:56;12.68;;;2.80;;
53207;SDS011;39093;52.788;6.940;2023-09-19T08:10:23;12.32;;;2.53;;
53207;SDS011;39093;52.788;6.940;2023-09-19T08:12:54;19.70;;;3.83;;
53207;SDS011;39093;52.788;6.940;2023-09-19T08:15:24;20.95;;;3.33;;
53207;SDS011;39093;52.788;6.940;2023-09-19T08:17:51;7.38;;;2.45;;
53207;SDS011;39093;52.788;6.940;2023-09-19T08:20:18;16.65;;;3.00;;
53207;SDS011;39093;52.788;6.940;2023-09-19T08:27:45;11.95;;;2.45;;
53207;SDS011;39093;52.788;6.940;2023-09-19T08:30:18;14.43;;;2.92;;
53207;SDS011;39093;52.788;6.940;2023-09-19T08:32:57;13.85;;;3.05;;
53207;SDS011;39093;52.788;6.940;2023-09-19T08:35:25;12.75;;;3.42;;
53207;SDS011;39093;52.788;6.940;2023-09-19T08:37:53;15.52;;;3.35;;
53207;SDS011;39093;52.788;6.940;2023-09-19T08:40:22;15.18;;;3.55;;
53207;SDS011;39093;52.788;6.940;2023-09-19T08:42:50;10.43;;;2.97;;
53207;SDS011;39093;52.788;6.940;2023-09-19T08:45:20;14.27;;;2.72;;
53207;SDS011;39093;52.788;6.940;2023-09-19T08:50:38;20.02;;;3.80;;
53207;SDS011;39093;52.788;6.940;2023-09-19T08:53:10;14.57;;;3.05;;
53207;SDS011;39093;52.788;6.940;2023-09-19T08:55:45;16.27;;;3.10;;
53207;SDS011;39093;52.788;6.940;2023-09-19T09:01:17;18.25;;;3.45;;
53207;SDS011;39093;52.788;6.940;2023-09-19T09:03:52;14.43;;;3.08;;
53207;SDS011;39093;52.788;6.940;2023-09-19T09:06:20;14.85;;;3.15;;
53207;SDS011;39093;52.788;6.940;2023-09-19T09:08:47;19.42;;;3.47;;
53207;SDS011;39093;52.788;6.940;2023-09-19T09:11:14;15.43;;;3.05;;
53207;SDS011;39093;52.788;6.940;2023-09-19T09:13:43;18.65;;;3.28;;
53207;SDS011;39093;52.788;6.940;2023-09-19T09:16:12;15.15;;;4.85;;
53207;SDS011;39093;52.788;6.940;2023-09-19T09:18:40;20.83;;;3.42;;
53207;SDS011;39093;52.788;6.940;2023-09-19T09:21:07;18.63;;;3.72;;
53207;SDS011;39093;52.788;6.940;2023-09-19T09:23:37;19.42;;;3.58;;
53207;SDS011;39093;52.788;6.940;2023-09-19T09:26:05;18.52;;;4.22;;
53207;SDS011;39093;52.788;6.940;2023-09-19T09:28:34;15.32;;;3.78;;
53207;SDS011;39093;52.788;6.940;2023-09-19T09:31:07;15.77;;;3.05;;
53207;SDS011;39093;52.788;6.940;2023-09-19T09:33:53;10.30;;;2.70;;
53207;SDS011;39093;52.788;6.940;2023-09-19T09:36:39;16.33;;;4.03;;
53207;SDS011;39093;52.788;6.940;2023-09-19T09:39:08;13.85;;;3.25;;
53207;SDS011;39093;52.788;6.940;2023-09-19T09:41:45;19.90;;;3.63;;
53207;SDS011;39093;52.788;6.940;2023-09-19T09:44:14;14.18;;;3.42;;
53207;SDS011;39093;52.788;6.940;2023-09-19T09:46:44;20.88;;;4.63;;
53207;SDS011;39093;52.788;6.940;2023-09-19T09:49:22;11.52;;;3.17;;
53207;SDS011;39093;52.788;6.940;2023-09-19T09:52:05;13.20;;;3.00;;
53207;SDS011;39093;52.788;6.940;2023-09-19T09:54:37;15.85;;;3.38;;
53207;SDS011;39093;52.788;6.940;2023-09-19T09:57:06;13.02;;;3.20;;
53207;SDS011;39093;52.788;6.940;2023-09-19T09:59:46;9.98;;;2.75;;
53207;SDS011;39093;52.788;6.940;2023-09-19T10:02:20;19.77;;;3.45;;
53207;SDS011;39093;52.788;6.940;2023-09-19T10:04:52;15.02;;;3.05;;
53207;SDS011;39093;52.788;6.940;2023-09-19T10:07:30;19.45;;;4.07;;
53207;SDS011;39093;52.788;6.940;2023-09-19T10:10:33;15.45;;;2.97;;
53207;SDS011;39093;52.788;6.940;2023-09-19T10:13:14;19.60;;;3.42;;
53207;SDS011;39093;52.788;6.940;2023-09-19T10:15:48;12.82;;;3.28;;
53207;SDS011;39093;52.788;6.940;2023-09-19T10:18:37;10.02;;;2.75;;
53207;SDS011;39093;52.788;6.940;2023-09-19T10:21:06;21.50;;;4.70;;
53207;SDS011;39093;52.788;6.940;2023-09-19T10:23:37;13.98;;;3.45;;
53207;SDS011;39093;52.788;6.940;2023-09-19T10:26:07;14.70;;;2.67;;
53207;SDS011;39093;52.788;6.940;2023-09-19T10:28:36;17.05;;;3.17;;
53207;SDS011;39093;52.788;6.940;2023-09-19T10:31:05;17.88;;;3.50;;
53207;SDS011;39093;52.788;6.940;2023-09-19T10:33:36;11.60;;;2.70;;
53207;SDS011;39093;52.788;6.940;2023-09-19T10:36:04;14.18;;;3.20;;
53207;SDS011;39093;52.788;6.940;2023-09-19T10:38:31;12.65;;;3.25;;
53207;SDS011;39093;52.788;6.940;2023-09-19T10:41:01;20.23;;;3.20;;
53207;SDS011;39093;52.788;6.940;2023-09-19T10:43:30;13.73;;;2.67;;
53207;SDS011;39093;52.788;6.940;2023-09-19T10:46:02;14.30;;;3.03;;
53207;SDS011;39093;52.788;6.940;2023-09-19T10:48:36;13.13;;;2.92;;
53207;SDS011;39093;52.788;6.940;2023-09-19T10:53:47;14.37;;;2.97;;
53207;SDS011;39093;52.788;6.940;2023-09-19T10:59:08;13.15;;;3.63;;
53207;SDS011;39093;52.788;6.940;2023-09-19T11:01:44;12.88;;;2.88;;
53207;SDS011;39093;52.788;6.940;2023-09-19T11:04:33;12.05;;;2.80;;
53207;SDS011;39093;52.788;6.940;2023-09-19T11:07:08;11.45;;;2.40;;
53207;SDS011;39093;52.788;6.940;2023-09-19T11:09:45;11.65;;;3.10;;
53207;SDS011;39093;52.788;6.940;2023-09-19T11:14:55;18.17;;;3.28;;
53207;SDS011;39093;52.788;6.940;2023-09-19T11:30:48;11.55;;;2.75;;
53207;SDS011;39093;52.788;6.940;2023-09-19T11:33:23;13.00;;;3.13;;
53207;SDS011;39093;52.788;6.940;2023-09-19T11:36:01;14.52;;;2.85;;
53207;SDS011;39093;52.788;6.940;2023-09-19T11:43:52;16.48;;;2.85;;
53207;SDS011;39093;52.788;6.940;2023-09-19T11:46:33;19.33;;;2.75;;
53207;SDS011;39093;52.788;6.940;2023-09-19T11:49:07;12.45;;;2.78;;
53207;SDS011;39093;52.788;6.940;2023-09-19T11:51:40;7.68;;;2.97;;
53207;SDS011;39093;52.788;6.940;2023-09-19T11:54:16;14.00;;;2.65;;
53207;SDS011;39093;52.788;6.940;2023-09-19T11:56:52;12.20;;;2.88;;
53207;SDS011;39093;52.788;6.940;2023-09-19T11:59:22;17.73;;;3.47;;
53207;SDS011;39093;52.788;6.940;2023-09-19T12:02:03;13.15;;;3.60;;
53207;SDS011;39093;52.788;6.940;2023-09-19T12:04:35;13.82;;;3.55;;
53207;SDS011;39093;52.788;6.940;2023-09-19T12:07:08;10.65;;;2.85;;
53207;SDS011;39093;52.788;6.940;2023-09-19T12:09:41;11.15;;;3.33;;
53207;SDS011;39093;52.788;6.940;2023-09-19T12:12:29;16.35;;;3.22;;
53207;SDS011;39093;52.788;6.940;2023-09-19T12:14:56;14.63;;;2.72;;
53207;SDS011;39093;52.788;6.940;2023-09-19T12:17:38;19.70;;;3.20;;
53207;SDS011;39093;52.788;6.940;2023-09-19T12:20:10;14.32;;;2.88;;
53207;SDS011;39093;52.788;6.940;2023-09-19T12:22:44;10.63;;;2.30;;
53207;SDS011;39093;52.788;6.940;2023-09-19T12:25:16;10.00;;;2.40;;
53207;SDS011;39093;52.788;6.940;2023-09-19T12:27:49;7.60;;;2.72;;
53207;SDS011;39093;52.788;6.940;2023-09-19T12:30:19;13.15;;;2.50;;
53207;SDS011;39093;52.788;6.940;2023-09-19T12:32:53;20.95;;;2.70;;
53207;SDS011;39093;52.788;6.940;2023-09-19T12:35:29;12.55;;;2.70;;
53207;SDS011;39093;52.788;6.940;2023-09-19T12:38:02;11.40;;;2.60;;
53207;SDS011;39093;52.788;6.940;2023-09-19T12:40:30;11.60;;;3.15;;
53207;SDS011;39093;52.788;6.940;2023-09-19T12:43:00;11.35;;;2.63;;
53207;SDS011;39093;52.788;6.940;2023-09-19T12:45:31;13.35;;;3.13;;
53207;SDS011;39093;52.788;6.940;2023-09-19T12:48:20;11.98;;;3.33;;
53207;SDS011;39093;52.788;6.940;2023-09-19T12:51:01;12.95;;;2.60;;
53207;SDS011;39093;52.788;6.940;2023-09-19T12:53:34;13.48;;;3.00;;
53207;SDS011;39093;52.788;6.940;2023-09-19T12:56:08;10.93;;;2.78;;
53207;SDS011;39093;52.788;6.940;2023-09-19T12:58:53;10.32;;;3.13;;
53207;SDS011;39093;52.788;6.940;2023-09-19T13:01:27;12.32;;;2.25;;
53207;SDS011;39093;52.788;6.940;2023-09-19T13:06:46;12.30;;;2.67;;
53207;SDS011;39093;52.788;6.940;2023-09-19T13:09:16;12.40;;;3.13;;
53207;SDS011;39093;52.788;6.940;2023-09-19T13:11:44;11.68;;;2.88;;
53207;SDS011;39093;52.788;6.940;2023-09-19T13:19:47;11.05;;;2.03;;
53207;SDS011;39093;52.788;6.940;2023-09-19T13:25:09;8.02;;;2.22;;
53207;SDS011;39093;52.788;6.940;2023-09-19T13:27:42;12.00;;;1.83;;
53207;SDS011;39093;52.788;6.940;2023-09-19T13:30:20;7.70;;;2.63;;
53207;SDS011;39093;52.788;6.940;2023-09-19T13:32:48;6.85;;;2.17;;
53207;SDS011;39093;52.788;6.940;2023-09-19T13:35:15;7.22;;;1.67;;
53207;SDS011;39093;52.788;6.940;2023-09-19T13:37:43;8.23;;;1.95;;
53207;SDS011;39093;52.788;6.940;2023-09-19T13:40:13;15.15;;;2.22;;
53207;SDS011;39093;52.788;6.940;2023-09-19T13:42:41;10.48;;;2.00;;
53207;SDS011;39093;52.788;6.940;2023-09-19T13:45:09;9.05;;;1.98;;
53207;SDS011;39093;52.788;6.940;2023-09-19T13:47:39;9.70;;;1.80;;
53207;SDS011;39093;52.788;6.940;2023-09-19T13:50:07;8.98;;;1.63;;
53207;SDS011;39093;52.788;6.940;2023-09-19T13:52:35;11.85;;;2.05;;
53207;SDS011;39093;52.788;6.940;2023-09-19T13:55:02;9.45;;;2.05;;
53207;SDS011;39093;52.788;6.940;2023-09-19T13:57:30;11.82;;;2.00;;
53207;SDS011;39093;52.788;6.940;2023-09-19T13:59:57;8.07;;;2.13;;
53207;SDS011;39093;52.788;6.940;2023-09-19T14:02:24;7.13;;;1.83;;
53207;SDS011;39093;52.788;6.940;2023-09-19T14:04:52;7.78;;;1.75;;
53207;SDS011;39093;52.788;6.940;2023-09-19T14:07:19;13.27;;;2.00;;
53207;SDS011;39093;52.788;6.940;2023-09-19T14:09:46;11.85;;;1.90;;
53207;SDS011;39093;52.788;6.940;2023-09-19T14:12:14;9.70;;;2.20;;
53207;SDS011;39093;52.788;6.940;2023-09-19T14:14:41;8.90;;;2.08;;
53207;SDS011;39093;52.788;6.940;2023-09-19T14:17:09;14.10;;;2.33;;
53207;SDS011;39093;52.788;6.940;2023-09-19T14:19:36;7.80;;;2.38;;
53207;SDS011;39093;52.788;6.940;2023-09-19T14:22:04;7.53;;;1.90;;
53207;SDS011;39093;52.788;6.940;2023-09-19T14:24:35;7.20;;;1.95;;
53207;SDS011;39093;52.788;6.940;2023-09-19T14:27:04;7.18;;;1.65;;
53207;SDS011;39093;52.788;6.940;2023-09-19T14:29:33;7.50;;;1.90;;
53207;SDS011;39093;52.788;6.940;2023-09-19T14:32:00;7.50;;;1.65;;
53207;SDS011;39093;52.788;6.940;2023-09-19T14:34:30;9.43;;;1.35;;
53207;SDS011;39093;52.788;6.940;2023-09-19T14:36:57;11.85;;;2.50;;
53207;SDS011;39093;52.788;6.940;2023-09-19T14:39:24;9.60;;;1.83;;
53207;SDS011;39093;52.788;6.940;2023-09-19T14:41:51;10.65;;;2.55;;
53207;SDS011;39093;52.788;6.940;2023-09-19T14:44:18;9.27;;;1.73;;
53207;SDS011;39093;52.788;6.940;2023-09-19T14:46:46;9.10;;;1.95;;
53207;SDS011;39093;52.788;6.940;2023-09-19T14:49:13;6.53;;;1.90;;
53207;SDS011;39093;52.788;6.940;2023-09-19T14:51:44;6.85;;;1.73;;
53207;SDS011;39093;52.788;6.940;2023-09-19T14:54:14;6.25;;;1.55;;
53207;SDS011;39093;52.788;6.940;2023-09-19T14:56:43;5.60;;;1.30;;
53207;SDS011;39093;52.788;6.940;2023-09-19T14:59:11;4.15;;;1.42;;
53207;SDS011;39093;52.788;6.940;2023-09-19T15:01:42;4.85;;;1.10;;
53207;SDS011;39093;52.788;6.940;2023-09-19T15:04:11;6.65;;;1.33;;
53207;SDS011;39093;52.788;6.940;2023-09-19T15:06:38;8.10;;;1.65;;
53207;SDS011;39093;52.788;6.940;2023-09-19T15:09:05;8.35;;;1.48;;
53207;SDS011;39093;52.788;6.940;2023-09-19T15:11:34;7.78;;;1.48;;
53207;SDS011;39093;52.788;6.940;2023-09-19T15:14:01;7.60;;;1.27;;
53207;SDS011;39093;52.788;6.940;2023-09-19T15:16:29;4.95;;;1.17;;
53207;SDS011;39093;52.788;6.940;2023-09-19T15:18:56;7.63;;;1.65;;
53207;SDS011;39093;52.788;6.940;2023-09-19T15:21:24;6.90;;;1.50;;
53207;SDS011;39093;52.788;6.940;2023-09-19T15:23:51;9.02;;;1.42;;
53207;SDS011;39093;52.788;6.940;2023-09-19T15:26:18;10.80;;;2.28;;
53207;SDS011;39093;52.788;6.940;2023-09-19T15:28:47;4.43;;;1.30;;
53207;SDS011;39093;52.788;6.940;2023-09-19T15:31:14;8.32;;;1.20;;
53207;SDS011;39093;52.788;6.940;2023-09-19T15:33:42;5.70;;;1.42;;
53207;SDS011;39093;52.788;6.940;2023-09-19T15:36:09;6.68;;;1.35;;
53207;SDS011;39093;52.788;6.940;2023-09-19T15:41:26;10.00;;;2.00;;
53207;SDS011;39093;52.788;6.940;2023-09-19T15:43:55;4.45;;;1.52;;
53207;SDS011;39093;52.788;6.940;2023-09-19T15:46:22;4.18;;;0.88;;
53207;SDS011;39093;52.788;6.940;2023-09-19T15:48:49;6.80;;;1.25;;
53207;SDS011;39093;52.788;6.940;2023-09-19T15:51:16;8.20;;;1.52;;
53207;SDS011;39093;52.788;6.940;2023-09-19T15:53:47;5.18;;;1.40;;
53207;SDS011;39093;52.788;6.940;2023-09-19T15:56:16;10.88;;;1.80;;
53207;SDS011;39093;52.788;6.940;2023-09-19T15:58:44;3.35;;;1.08;;
53207;SDS011;39093;52.788;6.940;2023-09-19T16:01:12;2.80;;;1.27;;
53207;SDS011;39093;52.788;6.940;2023-09-19T16:03:47;6.40;;;1.40;;
53207;SDS011;39093;52.788;6.940;2023-09-19T16:06:22;5.35;;;1.10;;
53207;SDS011;39093;52.788;6.940;2023-09-19T16:09:00;4.63;;;1.17;;
53207;SDS011;39093;52.788;6.940;2023-09-19T16:11:31;9.30;;;1.38;;